Time;durP1;ratioP1;P1;durP2;ratioP2;P2;SDS_P1;SDS_P2;PMS_P1;PMS_P2;Temp;Humidity;BMP_temperature;BMP_pressure;BME280_temperature;BME280_humidity;BME280_pressure;Samples;Min_cycle;Max_cycle;Signal;HPM_P1;HPM_P2
2021/12/27 00:02:26;;;;;;;10.25;3.42;;;13.80;99.90;;;;;;5054498;28;20106;-69
2021/12/27 00:05:31;;;;;;;8.20;3.63;;;13.70;99.90;;;;;;5053594;28;20060;-69
2021/12/27 00:08:41;;;;;;;6.72;4.05;;;13.70;99.90;;;;;;5054461;28;20044;-69
2021/12/27 00:11:44;;;;;;;11.68;5.00;;;13.60;99.90;;;;;;5053139;28;20051;-69
2021/12/27 00:14:48;;;;;;;9.32;5.45;;;13.50;99.90;;;;;;5053919;28;20036;-69
2021/12/27 00:17:52;;;;;;;11.52;4.65;;;13.40;99.90;;;;;;5053773;28;20409;-69
2021/12/27 00:20:56;;;;;;;10.40;5.88;;;13.30;99.90;;;;;;5054043;28;20044;-69
2021/12/27 00:24:00;;;;;;;10.43;6.25;;;13.30;99.90;;;;;;5053994;28;20068;-69
2021/12/27 00:27:04;;;;;;;13.25;7.38;;;13.30;99.90;;;;;;5053462;28;20059;-69
2021/12/27 00:30:10;;;;;;;13.88;7.75;;;13.30;99.90;;;;;;5053540;28;20048;-69
2021/12/27 00:33:14;;;;;;;13.75;7.60;;;13.30;99.90;;;;;;5053760;28;20452;-69
2021/12/27 00:36:18;;;;;;;10.23;7.22;;;13.30;99.90;;;;;;5053321;28;20312;-69
2021/12/27 00:39:22;;;;;;;11.77;7.55;;;13.40;99.90;;;;;;5053625;28;20055;-69
2021/12/27 00:42:26;;;;;;;14.85;8.00;;;13.40;99.90;;;;;;5053340;28;20051;-69
2021/12/27 00:45:30;;;;;;;10.43;6.72;;;13.30;99.90;;;;;;5053533;28;20048;-69
2021/12/27 00:48:33;;;;;;;8.57;5.63;;;13.30;99.90;;;;;;5053292;28;20044;-69
2021/12/27 00:51:37;;;;;;;9.80;6.05;;;13.40;99.90;;;;;;5053761;28;20047;-69
2021/12/27 00:54:41;;;;;;;10.63;5.53;;;13.40;99.90;;;;;;5053410;28;20503;-69
2021/12/27 00:57:46;;;;;;;6.95;4.40;;;13.30;99.90;;;;;;5052931;28;20051;-69
2021/12/27 01:00:51;;;;;;;9.40;4.43;;;13.20;99.90;;;;;;5053121;28;20040;-69
2021/12/27 01:03:56;;;;;;;8.75;4.30;;;13.20;99.90;;;;;;5053150;28;20396;-69
2021/12/27 01:07:00;;;;;;;8.45;4.82;;;13.20;99.90;;;;;;5052941;28;20040;-69
2021/12/27 01:13:47;;;;;;;4.32;3.50;;;13.30;99.90;;;;;;5053159;28;20044;-69
2021/12/27 01:16:51;;;;;;;5.25;3.30;;;13.40;99.90;;;;;;5052842;28;20060;-69
2021/12/27 01:19:55;;;;;;;6.28;3.58;;;13.50;99.90;;;;;;5052888;28;20040;-69
2021/12/27 01:22:59;;;;;;;9.80;4.82;;;13.50;99.90;;;;;;5052842;28;20044;-69
2021/12/27 01:26:03;;;;;;;8.85;4.22;;;13.60;99.90;;;;;;5052362;28;20044;-69
2021/12/27 01:29:09;;;;;;;8.80;5.10;;;13.60;99.90;;;;;;5052636;28;20492;-69
2021/12/27 01:32:13;;;;;;;9.98;5.15;;;13.70;99.90;;;;;;5052759;28;20393;-69
2021/12/27 01:35:17;;;;;;;8.48;5.40;;;13.70;99.90;;;;;;5052299;28;20052;-69
2021/12/27 01:38:22;;;;;;;7.63;5.93;;;13.60;99.90;;;;;;5052411;28;20052;-69
2021/12/27 01:41:25;;;;;;;8.95;5.50;;;13.60;99.90;;;;;;5052615;28;20043;-69
2021/12/27 01:44:29;;;;;;;10.90;6.45;;;13.50;99.90;;;;;;5052528;28;20048;-69
2021/12/27 01:47:33;;;;;;;9.63;5.63;;;13.40;99.90;;;;;;5052280;28;20396;-69
2021/12/27 01:50:42;;;;;;;8.02;5.20;;;13.40;99.90;;;;;;5052437;28;20052;-69
2021/12/27 01:53:47;;;;;;;9.70;5.47;;;13.40;99.90;;;;;;5052102;28;20044;-69
2021/12/27 01:56:52;;;;;;;10.63;4.90;;;13.40;99.90;;;;;;5051982;28;20551;-69
2021/12/27 01:59:55;;;;;;;8.95;5.10;;;13.40;99.90;;;;;;5052402;28;20048;-69
2021/12/27 02:02:59;;;;;;;8.85;5.53;;;13.40;99.90;;;;;;5052231;28;20312;-69
2021/12/27 02:06:06;;;;;;;9.52;5.53;;;13.40;99.90;;;;;;5051799;28;20048;-69
2021/12/27 02:09:10;;;;;;;7.43;4.80;;;13.40;99.90;;;;;;5052084;28;20048;-69
2021/12/27 02:12:14;;;;;;;8.13;5.10;;;13.30;99.90;;;;;;5051996;28;20112;-69
2021/12/27 02:15:19;;;;;;;7.28;4.63;;;13.40;99.90;;;;;;5052234;28;20044;-69
2021/12/27 02:18:23;;;;;;;6.57;4.40;;;13.30;99.90;;;;;;5051343;28;20052;-69
2021/12/27 02:21:26;;;;;;;6.07;4.75;;;13.40;99.90;;;;;;5051983;28;20048;-70
2021/12/27 02:24:31;;;;;;;10.07;4.90;;;13.30;99.90;;;;;;5051958;28;20040;-69
2021/12/27 02:27:35;;;;;;;6.93;4.82;;;13.30;99.90;;;;;;5051759;28;20044;-69
2021/12/27 02:30:41;;;;;;;9.00;5.78;;;13.40;99.90;;;;;;5051303;28;20056;-69
2021/12/27 02:33:45;;;;;;;7.75;5.63;;;13.30;99.90;;;;;;5051606;28;20115;-68
2021/12/27 02:36:49;;;;;;;11.52;4.93;;;13.30;99.90;;;;;;5051405;28;20056;-69
2021/12/27 02:39:53;;;;;;;6.57;4.80;;;13.20;99.90;;;;;;5051391;28;20409;-69
2021/12/27 02:43:01;;;;;;;5.65;5.00;;;13.20;99.90;;;;;;5051450;28;20048;-69
2021/12/27 02:46:08;;;;;;;9.32;5.20;;;13.20;99.90;;;;;;5051342;28;20048;-69
2021/12/27 02:49:12;;;;;;;7.78;4.70;;;13.30;99.90;;;;;;5051277;28;20052;-69
2021/12/27 02:52:16;;;;;;;7.68;5.38;;;13.30;99.90;;;;;;5051060;28;20040;-69
2021/12/27 02:55:20;;;;;;;10.70;5.53;;;13.30;99.90;;;;;;5050532;28;20389;-69
2021/12/27 02:58:25;;;;;;;7.03;4.97;;;13.30;99.90;;;;;;5050822;28;20067;-69
2021/12/27 03:01:30;;;;;;;7.70;5.05;;;13.30;99.90;;;;;;5050951;28;20040;-69
2021/12/27 03:04:36;;;;;;;9.60;5.80;;;13.20;99.90;;;;;;5051190;28;20044;-69
2021/12/27 03:07:40;;;;;;;8.32;5.95;;;13.10;99.90;;;;;;5051001;28;20195;-69
2021/12/27 03:10:48;;;;;;;8.00;5.03;;;13.10;99.90;;;;;;5051122;28;20150;-69
2021/12/27 03:13:52;;;;;;;7.78;5.03;;;13.00;99.90;;;;;;5051157;28;20044;-69
2021/12/27 03:16:56;;;;;;;10.63;5.03;;;12.90;99.90;;;;;;5050905;28;20507;-69
2021/12/27 03:20:00;;;;;;;6.70;4.43;;;12.80;99.90;;;;;;5050877;28;20060;-69
2021/12/27 03:23:04;;;;;;;9.15;4.50;;;12.80;99.90;;;;;;5050953;28;20048;-69
2021/12/27 03:26:09;;;;;;;9.90;4.85;;;12.80;99.90;;;;;;5050644;28;20044;-69
2021/12/27 03:29:14;;;;;;;8.52;4.72;;;12.70;99.90;;;;;;5050818;28;20048;-69
2021/12/27 03:32:20;;;;;;;8.25;4.80;;;12.60;99.90;;;;;;5054068;28;20060;-69
2021/12/27 03:35:26;;;;;;;9.60;5.18;;;12.50;99.90;;;;;;5054678;28;20052;-69
2021/12/27 03:38:35;;;;;;;8.32;5.40;;;12.60;99.90;;;;;;5054436;28;20056;-69
2021/12/27 03:41:39;;;;;;;6.53;4.97;;;12.60;99.90;;;;;;5054847;28;20428;-69
2021/12/27 03:44:44;;;;;;;7.18;4.80;;;12.70;99.90;;;;;;5054499;28;20052;-69
2021/12/27 03:47:48;;;;;;;10.35;5.65;;;12.70;99.90;;;;;;5054637;28;20306;-69
2021/12/27 03:50:53;;;;;;;8.85;5.50;;;12.80;99.90;;;;;;5054444;28;20056;-69
2021/12/27 03:53:57;;;;;;;6.85;5.03;;;12.90;99.90;;;;;;5053977;28;20044;-69
2021/12/27 03:57:02;;;;;;;6.47;5.00;;;12.90;99.90;;;;;;5054339;28;20064;-69
2021/12/27 04:00:27;;;;;;;7.78;5.18;;;12.90;99.90;;;;;;5054975;28;20488;-69
2021/12/27 04:03:31;;;;;;;11.02;5.03;;;12.90;99.90;;;;;;5053934;28;20048;-69
2021/12/27 04:06:54;;;;;;;7.63;5.10;;;12.90;99.90;;;;;;5054073;28;20044;-69
2021/12/27 04:10:17;;;;;;;8.10;5.03;;;12.90;99.90;;;;;;5054313;28;20048;-68
2021/12/27 04:13:40;;;;;;;10.48;4.97;;;12.90;99.90;;;;;;5053884;28;20055;-69
2021/12/27 04:16:46;;;;;;;9.20;5.03;;;12.90;99.90;;;;;;5054254;28;20056;-69
2021/12/27 04:19:50;;;;;;;7.55;5.30;;;12.90;99.90;;;;;;5053840;28;20040;-69
2021/12/27 04:22:55;;;;;;;6.90;5.47;;;12.80;99.90;;;;;;5053737;28;20400;-69
2021/12/27 04:25:59;;;;;;;6.35;5.70;;;12.80;99.90;;;;;;5053865;28;20051;-69
2021/12/27 04:29:04;;;;;;;7.10;5.50;;;12.80;99.90;;;;;;5053895;28;20052;-69
2021/12/27 04:32:08;;;;;;;10.27;6.13;;;12.80;99.90;;;;;;5053750;28;20393;-69
2021/12/27 04:35:12;;;;;;;9.10;5.75;;;12.70;99.90;;;;;;5041080;28;20056;-69
2021/12/27 04:38:16;;;;;;;8.70;6.10;;;12.70;99.90;;;;;;5053411;28;20060;-69
2021/12/27 04:41:22;;;;;;;10.02;6.65;;;12.60;99.90;;;;;;5053200;28;20051;-69
2021/12/27 04:44:26;;;;;;;9.20;7.30;;;12.50;99.90;;;;;;5053616;28;20052;-69
2021/12/27 04:47:31;;;;;;;10.82;6.82;;;12.50;99.90;;;;;;5053280;28;20401;-69
2021/12/27 04:50:36;;;;;;;12.15;8.68;;;12.50;99.90;;;;;;5053644;28;20056;-69
2021/12/27 04:53:39;;;;;;;12.27;7.28;;;12.50;99.90;;;;;;5053287;28;20524;-69
2021/12/27 04:56:43;;;;;;;10.65;7.30;;;12.60;99.90;;;;;;5053646;28;20048;-69
2021/12/27 04:59:47;;;;;;;13.88;7.28;;;12.60;99.90;;;;;;5053479;28;20492;-69
2021/12/27 05:02:51;;;;;;;10.68;6.63;;;12.70;99.90;;;;;;5052919;28;20044;-69
2021/12/27 05:05:55;;;;;;;10.07;6.82;;;12.80;99.90;;;;;;5053090;28;20063;-69
2021/12/27 05:08:59;;;;;;;9.18;6.78;;;12.80;99.90;;;;;;5052718;28;20047;-69
2021/12/27 05:12:04;;;;;;;10.75;7.38;;;12.80;99.90;;;;;;5053067;28;20424;-69
2021/12/27 05:15:08;;;;;;;12.40;8.23;;;12.80;99.90;;;;;;5052785;28;20067;-69
2021/12/27 05:18:12;;;;;;;11.43;7.85;;;12.90;99.90;;;;;;5052739;28;20064;-69
2021/12/27 05:21:16;;;;;;;12.85;7.82;;;13.00;99.90;;;;;;5052947;28;20047;-69
2021/12/27 05:24:22;;;;;;;11.13;7.55;;;13.00;99.90;;;;;;5052889;28;20048;-69
2021/12/27 05:27:26;;;;;;;11.95;7.40;;;13.00;99.90;;;;;;5052731;28;20044;-69
2021/12/27 05:30:30;;;;;;;13.70;8.48;;;13.00;99.90;;;;;;5052714;28;20040;-69
2021/12/27 05:33:34;;;;;;;11.90;8.27;;;13.00;99.90;;;;;;5052603;28;20056;-68
2021/12/27 05:36:38;;;;;;;11.10;7.78;;;12.90;99.90;;;;;;5052233;28;20044;-69
2021/12/27 05:39:42;;;;;;;12.00;8.32;;;12.80;99.90;;;;;;5052585;28;20047;-69
2021/12/27 05:42:46;;;;;;;11.07;7.90;;;12.80;99.90;;;;;;5052200;28;20055;-69
2021/12/27 05:45:50;;;;;;;11.85;8.40;;;12.90;99.90;;;;;;5051530;28;20048;-69
2021/12/27 05:48:54;;;;;;;14.10;8.75;;;12.90;99.90;;;;;;5052526;28;20052;-69
2021/12/27 05:51:59;;;;;;;13.00;8.48;;;12.90;99.90;;;;;;5052457;28;20044;-69
2021/12/27 05:55:05;;;;;;;15.48;9.15;;;12.80;99.90;;;;;;5051493;28;20044;-69
2021/12/27 05:58:09;;;;;;;11.93;8.27;;;12.80;99.90;;;;;;5051952;28;20056;-69
2021/12/27 06:01:13;;;;;;;12.43;8.38;;;12.80;99.90;;;;;;5051863;28;20043;-69
2021/12/27 06:04:17;;;;;;;12.95;8.60;;;12.90;99.90;;;;;;5051143;28;20056;-69
2021/12/27 06:07:21;;;;;;;13.55;9.38;;;12.90;99.90;;;;;;5051553;28;20107;-69
2021/12/27 06:10:25;;;;;;;12.23;9.43;;;12.90;99.90;;;;;;5051737;28;20063;-69
2021/12/27 06:13:29;;;;;;;12.93;9.80;;;12.90;99.90;;;;;;5051741;28;20044;-69
2021/12/27 06:16:33;;;;;;;16.30;10.77;;;12.80;99.90;;;;;;5051707;28;20043;-69
2021/12/27 06:19:37;;;;;;;15.02;11.25;;;12.70;99.90;;;;;;5051460;28;20519;-68
2021/12/27 06:22:46;;;;;;;16.08;11.75;;;12.70;99.90;;;;;;5051459;28;20044;-69
2021/12/27 06:25:50;;;;;;;19.95;13.20;;;12.50;99.90;;;;;;5051662;28;20044;-69
2021/12/27 06:28:54;;;;;;;21.27;14.35;;;12.60;99.90;;;;;;5051673;28;20389;-69
2021/12/27 06:31:58;;;;;;;21.65;14.95;;;12.50;99.90;;;;;;5051261;28;20040;-70
2021/12/27 06:35:06;;;;;;;17.92;12.18;;;12.60;99.90;;;;;;5051216;28;20052;-69
2021/12/27 06:38:10;;;;;;;15.73;11.45;;;12.60;99.90;;;;;;5051161;28;20219;-69
2021/12/27 06:41:14;;;;;;;20.38;14.00;;;12.60;99.90;;;;;;5051506;28;20040;-69
2021/12/27 06:44:18;;;;;;;18.65;12.85;;;12.60;99.90;;;;;;5049440;28;20047;-66
2021/12/27 06:47:22;;;;;;;15.25;11.48;;;12.60;99.90;;;;;;5049683;28;20036;-66
2021/12/27 06:50:26;;;;;;;16.88;12.15;;;12.60;99.90;;;;;;5050284;28;20052;-66
2021/12/27 06:53:31;;;;;;;16.75;10.48;;;12.50;99.90;;;;;;5051268;28;20056;-66
2021/12/27 06:56:35;;;;;;;16.38;11.02;;;12.50;99.90;;;;;;5050997;28;20044;-66
2021/12/27 06:59:39;;;;;;;16.17;11.63;;;12.60;99.90;;;;;;5050924;28;20063;-66
2021/12/27 07:02:44;;;;;;;17.13;11.63;;;12.60;99.90;;;;;;5050983;28;20068;-66
2021/12/27 07:05:49;;;;;;;24.42;16.48;;;12.60;99.90;;;;;;5050497;28;20267;-66
2021/12/27 07:08:52;;;;;;;21.30;13.93;;;12.50;99.90;;;;;;5051237;28;20047;-67
2021/12/27 07:11:57;;;;;;;13.65;11.35;;;12.50;99.90;;;;;;5050924;28;20059;-67
2021/12/27 07:15:00;;;;;;;16.60;11.65;;;12.50;99.90;;;;;;5051130;28;20115;-68
2021/12/27 07:18:04;;;;;;;15.50;12.32;;;12.50;99.90;;;;;;5050586;28;20409;-66
2021/12/27 07:21:08;;;;;;;20.52;14.65;;;12.50;99.90;;;;;;5050847;28;20036;-64
2021/12/27 07:24:13;;;;;;;18.33;14.73;;;12.50;99.90;;;;;;5050750;28;20044;-64
2021/12/27 07:27:16;;;;;;;19.60;15.18;;;12.50;99.90;;;;;;5050738;28;20056;-64
2021/12/27 07:30:21;;;;;;;19.63;15.38;;;12.50;99.90;;;;;;5050811;28;20495;-67
2021/12/27 07:33:24;;;;;;;17.52;13.40;;;12.50;99.90;;;;;;5050388;28;20524;-65
2021/12/27 07:36:30;;;;;;;23.13;15.88;;;12.40;99.90;;;;;;5050709;28;20076;-67
2021/12/27 07:39:34;;;;;;;22.20;15.65;;;12.50;99.90;;;;;;5050827;28;20059;-66
2021/12/27 07:42:39;;;;;;;20.90;15.57;;;12.50;99.90;;;;;;5049176;28;20064;-66
2021/12/27 07:45:42;;;;;;;22.77;16.30;;;12.50;99.90;;;;;;5050717;28;20499;-66
2021/12/27 07:48:46;;;;;;;24.30;16.58;;;12.50;99.90;;;;;;5050548;28;20051;-65
2021/12/27 07:51:50;;;;;;;27.50;18.65;;;12.50;99.90;;;;;;5050157;28;20044;-67
2021/12/27 07:54:54;;;;;;;28.63;19.30;;;12.60;99.90;;;;;;5050670;28;20044;-64
2021/12/27 07:57:59;;;;;;;28.92;20.17;;;12.70;99.90;;;;;;5050447;28;20515;-69
2021/12/27 08:01:04;;;;;;;30.27;20.15;;;12.80;99.90;;;;;;5050470;28;20068;-66
2021/12/27 08:04:08;;;;;;;32.42;18.92;;;12.80;99.90;;;;;;5050226;28;20056;-65
2021/12/27 08:07:12;;;;;;;19.65;15.80;;;12.90;99.90;;;;;;5050316;28;20500;-65
2021/12/27 08:10:16;;;;;;;24.40;15.98;;;13.00;99.90;;;;;;5050323;28;20499;-66
2021/12/27 08:13:21;;;;;;;21.95;15.95;;;13.10;99.90;;;;;;5049876;28;20397;-67
2021/12/27 08:16:25;;;;;;;18.65;14.68;;;13.20;99.90;;;;;;5050574;28;20052;-67
2021/12/27 08:19:29;;;;;;;22.85;14.02;;;13.30;99.90;;;;;;5053643;28;20056;-66
2021/12/27 08:22:33;;;;;;;19.73;13.93;;;13.30;99.90;;;;;;5053868;28;20052;-67
2021/12/27 08:25:38;;;;;;;23.33;14.63;;;13.40;99.90;;;;;;5054120;28;20516;-67
2021/12/27 08:28:43;;;;;;;21.23;15.95;;;13.50;99.90;;;;;;5053616;28;20060;-66
2021/12/27 08:31:46;;;;;;;31.67;17.63;;;13.60;99.90;;;;;;5053419;28;20048;-67
2021/12/27 08:34:50;;;;;;;26.48;18.25;;;13.60;99.90;;;;;;5053775;28;20048;-67
2021/12/27 08:37:55;;;;;;;26.45;17.08;;;13.50;99.90;;;;;;5053552;28;20060;-66
2021/12/27 08:40:59;;;;;;;25.02;16.95;;;13.60;99.90;;;;;;5053658;28;20064;-66
2021/12/27 08:44:05;;;;;;;25.65;17.42;;;13.60;99.90;;;;;;5053418;28;20521;-67
2021/12/27 08:47:10;;;;;;;24.02;18.00;;;13.60;99.90;;;;;;5053452;28;20392;-66
2021/12/27 08:50:17;;;;;;;29.67;19.65;;;13.50;99.90;;;;;;5052458;28;20424;-67
2021/12/27 08:53:21;;;;;;;24.25;18.35;;;13.50;99.90;;;;;;5053606;28;20044;-66
2021/12/27 08:56:25;;;;;;;24.00;18.92;;;13.50;99.90;;;;;;5053436;28;20052;-67
2021/12/27 08:59:29;;;;;;;25.45;18.23;;;13.70;99.90;;;;;;5053105;28;20401;-67
2021/12/27 09:02:33;;;;;;;26.08;18.98;;;13.70;99.90;;;;;;5053068;28;20503;-67
2021/12/27 09:05:38;;;;;;;28.10;19.33;;;13.80;99.90;;;;;;5053045;28;20067;-67
2021/12/27 09:08:42;;;;;;;25.83;19.00;;;13.80;99.90;;;;;;5053034;28;20044;-67
2021/12/27 09:11:47;;;;;;;24.20;18.27;;;13.80;99.90;;;;;;5052757;28;20052;-67
2021/12/27 09:14:51;;;;;;;23.92;14.85;;;14.10;99.90;;;;;;5052697;28;20059;-67
2021/12/27 09:17:55;;;;;;;23.17;17.55;;;14.30;99.90;;;;;;5052821;28;20060;-66
2021/12/27 09:21:00;;;;;;;28.48;16.77;;;14.60;99.90;;;;;;5052688;28;20044;-67
2021/12/27 09:24:04;;;;;;;27.80;17.75;;;14.60;99.90;;;;;;5053166;28;20044;-67
2021/12/27 09:27:08;;;;;;;21.20;14.07;;;14.60;99.90;;;;;;5052920;28;20068;-67
2021/12/27 09:30:12;;;;;;;17.70;14.07;;;14.70;99.90;;;;;;5052702;28;20040;-67
2021/12/27 09:33:17;;;;;;;22.80;14.93;;;14.80;99.90;;;;;;5052483;28;20079;-67
2021/12/27 09:36:21;;;;;;;20.75;15.07;;;14.90;99.90;;;;;;5052503;28;20056;-67
2021/12/27 09:39:25;;;;;;;27.20;15.55;;;15.00;99.90;;;;;;5052303;28;20052;-67
2021/12/27 09:42:30;;;;;;;24.88;16.52;;;15.00;99.90;;;;;;5052628;28;20040;-67
2021/12/27 09:45:34;;;;;;;24.30;17.20;;;14.90;99.90;;;;;;5052675;28;20401;-67
2021/12/27 09:48:40;;;;;;;21.45;13.05;;;14.90;99.90;;;;;;5052665;28;20059;-67
2021/12/27 09:51:45;;;;;;;24.58;16.23;;;14.90;99.90;;;;;;5052377;28;20040;-67
2021/12/27 09:54:49;;;;;;;21.85;14.32;;;14.90;99.90;;;;;;5052094;28;20500;-67
2021/12/27 09:57:53;;;;;;;18.88;13.50;;;14.90;99.90;;;;;;5052474;28;20048;-67
2021/12/27 10:01:02;;;;;;;22.08;12.50;;;14.90;99.90;;;;;;5051965;28;20044;-68
2021/12/27 10:04:09;;;;;;;22.00;15.82;;;14.90;99.90;;;;;;5051940;28;20194;-68
2021/12/27 10:07:22;;;;;;;26.25;16.65;;;14.90;99.90;;;;;;5051938;28;20040;-67
2021/12/27 10:10:31;;;;;;;25.48;15.13;;;15.00;99.90;;;;;;5051494;28;20052;-67
2021/12/27 10:13:35;;;;;;;17.77;12.75;;;15.20;99.90;;;;;;5051519;28;20044;-67
2021/12/27 10:16:46;;;;;;;17.83;9.00;;;15.60;99.90;;;;;;5051155;28;20043;-67
2021/12/27 10:19:52;;;;;;;10.38;5.72;;;15.90;99.90;;;;;;5051366;28;20056;-67
2021/12/27 10:22:57;;;;;;;10.82;5.75;;;16.00;99.90;;;;;;5051498;28;20056;-67
2021/12/27 10:26:01;;;;;;;12.52;5.03;;;16.10;99.90;;;;;;5051416;28;20052;-67
2021/12/27 10:29:15;;;;;;;15.75;7.38;;;16.00;99.90;;;;;;5051441;28;20040;-66
2021/12/27 10:32:20;;;;;;;11.02;5.57;;;16.00;99.90;;;;;;5051235;28;20047;-67
2021/12/27 10:35:35;;;;;;;8.52;4.55;;;15.90;99.90;;;;;;5050787;28;20059;-67
2021/12/27 10:38:41;;;;;;;7.13;3.83;;;15.80;99.90;;;;;;5050906;28;20199;-67
2021/12/27 10:41:45;;;;;;;7.57;4.10;;;15.70;99.90;;;;;;5051487;28;20598;-69
2021/12/27 10:44:51;;;;;;;8.75;4.40;;;15.70;99.90;;;;;;5051102;28;20424;-67
2021/12/27 10:48:02;;;;;;;11.90;4.80;;;15.70;99.90;;;;;;5050497;28;20499;-67
2021/12/27 10:51:06;;;;;;;13.50;4.75;;;15.70;99.90;;;;;;5051044;28;20056;-66
2021/12/27 10:54:10;;;;;;;16.20;5.35;;;15.80;99.90;;;;;;5050892;28;20044;-67
2021/12/27 10:57:24;;;;;;;11.00;4.57;;;15.80;99.90;;;;;;5050818;28;20040;-67
2021/12/27 11:00:31;;;;;;;11.10;3.97;;;15.80;99.90;;;;;;5050667;28;20400;-65
2021/12/27 11:03:37;;;;;;;11.88;4.03;;;16.00;99.90;;;;;;5051085;28;20040;-66
2021/12/27 11:06:42;;;;;;;18.65;4.57;;;16.20;99.90;;;;;;5050414;28;20044;-66
2021/12/27 11:09:46;;;;;;;8.65;3.88;;;16.30;99.90;;;;;;5050858;28;20056;-66
2021/12/27 11:12:51;;;;;;;12.48;3.70;;;16.30;99.90;;;;;;5050721;28;20043;-65
2021/12/27 11:15:55;;;;;;;13.98;3.92;;;16.30;99.90;;;;;;5050790;28;20405;-64
2021/12/27 11:19:00;;;;;;;12.98;3.78;;;16.30;99.90;;;;;;5050508;28;20052;-65
2021/12/27 11:22:04;;;;;;;8.90;3.50;;;16.30;99.90;;;;;;5050461;28;20396;-68
2021/12/27 11:25:38;;;;;;;8.27;3.15;;;16.40;99.90;;;;;;5050511;28;20495;-66
2021/12/27 11:28:44;;;;;;;15.60;3.95;;;16.50;99.90;;;;;;5050283;28;20044;-66
2021/12/27 11:32:09;;;;;;;13.55;3.72;;;16.50;99.90;;;;;;5050344;28;20048;-69
2021/12/27 11:35:13;;;;;;;12.90;4.10;;;16.40;99.90;;;;;;5050181;28;20064;-67
2021/12/27 11:38:42;;;;;;;7.10;3.45;;;16.40;99.90;;;;;;5050435;28;20052;-66
2021/12/27 11:42:10;;;;;;;14.43;4.25;;;16.40;99.90;;;;;;5050381;28;20043;-67
2021/12/27 11:45:36;;;;;;;7.03;3.15;;;16.40;99.90;;;;;;5049936;28;20072;-65
2021/12/27 11:48:49;;;;;;;9.48;3.50;;;16.30;99.90;;;;;;5050532;28;20044;-66
2021/12/27 11:52:16;;;;;;;6.82;3.05;;;16.30;99.90;;;;;;5051507;28;20048;-66
2021/12/27 11:55:22;;;;;;;17.38;7.65;;;16.20;99.90;;;;;;5053713;28;20048;-65
2021/12/27 11:58:35;;;;;;;11.40;3.90;;;16.20;99.90;;;;;;5052497;28;20048;-66
2021/12/27 12:01:39;;;;;;;9.32;3.70;;;16.20;99.90;;;;;;5052748;28;20044;-65
2021/12/27 12:04:49;;;;;;;7.35;3.58;;;16.30;99.90;;;;;;5052080;28;20052;-66
2021/12/27 12:07:54;;;;;;;15.77;3.95;;;16.30;99.90;;;;;;5052964;28;20404;-66
2021/12/27 12:11:01;;;;;;;12.77;3.85;;;16.30;99.90;;;;;;5052736;28;20389;-67
2021/12/27 12:14:25;;;;;;;17.15;3.58;;;16.30;99.90;;;;;;5051915;28;20051;-66
2021/12/27 12:17:53;;;;;;;15.10;4.30;;;16.40;99.90;;;;;;5051795;28;20056;-66
2021/12/27 12:20:57;;;;;;;10.02;3.40;;;16.50;99.90;;;;;;5052085;28;20052;-65
2021/12/27 12:24:18;;;;;;;15.13;4.32;;;16.50;99.90;;;;;;5052528;28;20048;-66
2021/12/27 12:27:22;;;;;;;9.93;3.70;;;16.50;99.90;;;;;;5052928;28;20047;-66
2021/12/27 12:30:36;;;;;;;8.27;3.58;;;16.60;99.90;;;;;;5053249;28;20415;-67
2021/12/27 12:33:39;;;;;;;11.65;3.75;;;16.60;99.90;;;;;;5053280;28;20064;-66
2021/12/27 12:36:56;;;;;;;13.18;4.85;;;16.70;99.80;;;;;;5052880;28;20047;-67
2021/12/27 12:40:01;;;;;;;11.40;4.10;;;16.70;99.90;;;;;;5052778;28;20056;-67
2021/12/27 12:43:05;;;;;;;17.08;4.65;;;16.70;99.90;;;;;;5053096;28;20128;-66
2021/12/27 12:46:20;;;;;;;10.18;3.63;;;16.70;99.90;;;;;;5052854;28;20056;-67
2021/12/27 12:49:26;;;;;;;8.80;4.18;;;16.70;99.90;;;;;;5053092;28;20040;-66
2021/12/27 12:52:30;;;;;;;8.45;3.58;;;16.60;99.90;;;;;;5053257;28;20047;-65
2021/12/27 12:55:38;;;;;;;9.93;3.78;;;16.60;99.90;;;;;;5053313;28;20045;-67
2021/12/27 12:58:42;;;;;;;12.95;4.07;;;16.60;99.90;;;;;;5053296;28;20056;-66
2021/12/27 13:01:53;;;;;;;8.00;4.07;;;16.60;99.90;;;;;;5052163;28;20063;-67
2021/12/27 13:05:06;;;;;;;23.20;5.85;;;16.50;99.90;;;;;;5372260;22;20048;-66
2021/12/27 13:08:12;;;;;;;12.35;4.28;;;16.50;99.90;;;;;;5053537;28;20059;-66
2021/12/27 13:11:17;;;;;;;9.85;3.80;;;16.50;99.90;;;;;;5052961;28;20052;-65
2021/12/27 13:14:25;;;;;;;9.13;3.50;;;16.50;99.90;;;;;;5053083;28;20044;-65
2021/12/27 13:17:29;;;;;;;13.57;4.10;;;16.40;99.90;;;;;;5053011;28;20048;-65
2021/12/27 13:20:39;;;;;;;8.70;3.30;;;16.40;99.90;;;;;;5053175;28;20048;-65
2021/12/27 13:23:43;;;;;;;10.95;3.70;;;16.40;99.80;;;;;;5052917;28;20047;-67
2021/12/27 13:26:47;;;;;;;12.88;3.67;;;16.40;99.80;;;;;;5053032;28;20047;-65
2021/12/27 13:30:10;;;;;;;13.48;4.75;;;16.30;99.90;;;;;;5052991;28;20067;-64
2021/12/27 13:33:14;;;;;;;14.65;4.93;;;16.40;99.90;;;;;;5052890;28;20052;-65
2021/12/27 13:36:29;;;;;;;14.52;4.15;;;16.30;99.80;;;;;;5052719;28;20103;-69
2021/12/27 13:39:33;;;;;;;13.85;4.85;;;16.30;99.70;;;;;;5052623;28;20059;-65
2021/12/27 13:42:37;;;;;;;11.80;4.03;;;16.30;99.50;;;;;;5052370;28;20047;-66
2021/12/27 13:45:43;;;;;;;10.15;4.15;;;16.30;99.70;;;;;;5052681;28;20120;-65
2021/12/27 13:48:49;;;;;;;11.18;4.38;;;16.30;99.80;;;;;;5051425;28;20036;-65
2021/12/27 13:52:00;;;;;;;14.20;5.47;;;16.20;99.90;;;;;;5052651;28;20521;-65
2021/12/27 13:55:05;;;;;;;13.60;4.97;;;16.20;99.90;;;;;;5052196;28;20044;-64
2021/12/27 13:58:23;;;;;;;12.60;3.80;;;16.20;99.90;;;;;;5052231;28;20051;-66
2021/12/27 14:01:27;;;;;;;13.15;4.13;;;16.10;99.90;;;;;;5052630;28;20036;-67
2021/12/27 14:04:32;;;;;;;17.58;6.13;;;16.10;99.90;;;;;;5052180;28;20048;-67
2021/12/27 14:07:36;;;;;;;12.73;4.65;;;16.10;99.90;;;;;;5033237;28;20060;-66
2021/12/27 14:10:40;;;;;;;13.05;5.75;;;16.10;99.90;;;;;;5032548;28;20044;-65
2021/12/27 14:13:49;;;;;;;11.60;5.68;;;16.00;99.90;;;;;;5032118;28;20040;-68
2021/12/27 14:17:04;;;;;;;19.70;5.43;;;16.00;99.90;;;;;;5031972;28;20064;-67
2021/12/27 14:20:11;;;;;;;14.43;4.80;;;16.00;99.90;;;;;;5031720;28;20052;-65
2021/12/27 14:23:15;;;;;;;13.63;4.47;;;16.00;99.90;;;;;;5032125;28;20044;-66
2021/12/27 14:26:20;;;;;;;11.38;4.32;;;15.90;99.90;;;;;;5032145;28;20635;-67
2021/12/27 14:29:25;;;;;;;14.13;5.18;;;15.90;99.90;;;;;;5031825;28;20060;-68
2021/12/27 14:32:29;;;;;;;12.88;5.25;;;15.90;99.90;;;;;;5031600;28;20049;-67
2021/12/27 14:35:51;;;;;;;11.93;5.05;;;15.90;99.90;;;;;;5031763;28;20048;-68
2021/12/27 14:38:58;;;;;;;18.13;6.18;;;15.90;99.90;;;;;;5031506;28;20400;-66
2021/12/27 14:42:03;;;;;;;15.82;5.70;;;15.90;99.90;;;;;;5031241;28;20100;-67
2021/12/27 14:45:08;;;;;;;18.13;7.00;;;15.90;99.90;;;;;;5031306;28;20507;-64
2021/12/27 14:48:14;;;;;;;17.83;6.40;;;15.90;99.90;;;;;;5031494;28;20036;-67
2021/12/27 14:51:18;;;;;;;34.05;13.70;;;15.80;99.90;;;;;;5031046;28;20060;-67
2021/12/27 14:54:22;;;;;;;29.98;11.07;;;15.80;99.90;;;;;;5031301;28;20036;-67
2021/12/27 14:57:26;;;;;;;25.98;10.40;;;15.80;99.90;;;;;;5031143;28;20052;-67
2021/12/27 15:00:35;;;;;;;24.98;11.07;;;15.80;99.90;;;;;;5030304;28;20049;-67
2021/12/27 15:03:40;;;;;;;23.25;11.45;;;15.80;99.90;;;;;;5029521;28;20037;-67
2021/12/27 15:06:44;;;;;;;19.40;7.68;;;15.80;99.90;;;;;;5030836;28;20075;-67
2021/12/27 15:09:48;;;;;;;26.98;9.18;;;15.70;99.90;;;;;;5048978;28;20048;-67
2021/12/27 15:12:53;;;;;;;26.20;9.65;;;15.70;99.90;;;;;;5049119;28;20048;-66
2021/12/27 15:15:57;;;;;;;22.35;8.77;;;15.60;99.90;;;;;;5049597;28;20036;-66
2021/12/27 15:19:00;;;;;;;26.13;9.45;;;15.60;99.90;;;;;;5050788;28;20055;-65
2021/12/27 15:22:05;;;;;;;32.95;10.82;;;15.60;99.90;;;;;;5050902;28;20040;-66
2021/12/27 15:25:09;;;;;;;21.67;10.27;;;15.50;99.90;;;;;;5049393;28;20059;-65
2021/12/27 15:28:14;;;;;;;22.80;9.55;;;15.40;99.90;;;;;;5050753;28;20100;-65
2021/12/27 15:31:21;;;;;;;22.70;9.70;;;15.50;99.90;;;;;;5049205;28;20048;-67
2021/12/27 15:34:26;;;;;;;27.60;11.15;;;15.50;99.90;;;;;;5050857;28;20495;-64
2021/12/27 15:37:29;;;;;;;25.33;11.18;;;15.40;99.90;;;;;;5050896;28;20151;-65
2021/12/27 15:40:33;;;;;;;21.70;9.63;;;15.40;99.90;;;;;;5050849;28;20060;-66
2021/12/27 15:43:37;;;;;;;23.45;9.15;;;15.30;99.90;;;;;;5050478;28;20080;-67
2021/12/27 15:46:41;;;;;;;16.40;7.82;;;15.30;99.90;;;;;;5050511;28;20044;-66
2021/12/27 15:49:45;;;;;;;38.88;17.33;;;15.20;99.90;;;;;;5049901;28;20048;-68
2021/12/27 15:52:49;;;;;;;33.40;18.73;;;15.20;99.90;;;;;;5049972;28;20064;-67
2021/12/27 15:55:53;;;;;;;24.48;11.30;;;15.20;99.90;;;;;;5050443;28;20071;-71
2021/12/27 15:58:57;;;;;;;20.98;8.27;;;15.20;99.90;;;;;;5050352;28;20056;-67